createdAt,value
2017-12-29T00:00:43.957Z,0.8
2017-12-29T00:01:43.383Z,0.8
2017-12-29T00:02:43.936Z,0.8
2017-12-29T00:03:43.418Z,0.88
2017-12-29T00:04:43.700Z,0.84
2017-12-29T00:05:43.439Z,0.74
2017-12-29T00:06:43.719Z,0.74
2017-12-29T00:07:43.478Z,0.86
2017-12-29T00:08:44.004Z,0.92
2017-12-29T00:09:44.015Z,0.88
2017-12-29T00:10:43.766Z,0.94
2017-12-29T00:11:43.779Z,1.04
2017-12-29T00:12:43.799Z,1.1
2017-12-29T00:13:43.791Z,0.91
2017-12-29T00:14:43.818Z,1.02
2017-12-29T00:15:43.621Z,0.96
2017-12-29T00:16:43.810Z,0.92
2017-12-29T00:17:43.588Z,0.96
2017-12-29T00:18:43.596Z,0.95
2017-12-29T00:19:44.132Z,1.02
2017-12-29T00:20:44.151Z,1.12
2017-12-29T00:21:43.861Z,1.12
2017-12-29T00:22:43.902Z,1.22
2017-12-29T00:23:44.171Z,1.12
2017-12-29T00:24:43.931Z,1.06
2017-12-29T00:25:43.660Z,1.13
2017-12-29T00:26:43.948Z,1.06
2017-12-29T00:27:43.966Z,1.04
2017-12-29T00:28:43.993Z,0.96
2017-12-29T00:29:44.247Z,0.98
2017-12-29T00:30:44.329Z,0.99
2017-12-29T00:31:44.261Z,0.84
2017-12-29T00:32:44.267Z,1.01
2017-12-29T00:33:43.767Z,1.01
2017-12-29T00:34:44.287Z,0.86
2017-12-29T00:35:44.285Z,0.7
2017-12-29T00:36:44.292Z,0.69
2017-12-29T00:37:44.056Z,0.86
2017-12-29T00:38:44.090Z,0.78
2017-12-29T00:39:44.093Z,0.78
2017-12-29T00:40:43.861Z,0.77
2017-12-29T00:41:44.095Z,0.83
2017-12-29T00:42:43.859Z,0.69
2017-12-29T00:43:44.407Z,0.76
2017-12-29T00:44:44.148Z,0.77
2017-12-29T00:45:44.213Z,0.74
2017-12-29T00:46:44.416Z,0.69
2017-12-29T00:47:43.928Z,0.78
2017-12-29T00:48:44.177Z,0.58
2017-12-29T00:49:44.221Z,0.6
2017-12-29T00:50:44.190Z,0.63
2017-12-29T00:51:44.212Z,0.66
2017-12-29T00:52:44.230Z,0.62
2017-12-29T00:53:44.517Z,0.47
2017-12-29T00:54:44.008Z,0.65
2017-12-29T00:55:44.265Z,0.59
2017-12-29T00:56:44.517Z,0.46
2017-12-29T00:57:44.297Z,0.39
2017-12-29T00:58:44.033Z,0.5
2017-12-29T00:59:44.291Z,0.5
2017-12-29T01:00:44.103Z,0.44
2017-12-29T01:01:44.063Z,0.47
2017-12-29T01:02:44.074Z,0.58
2017-12-29T01:03:44.335Z,0.58
2017-12-29T01:04:44.600Z,0.46
2017-12-29T01:05:44.610Z,0.49
2017-12-29T01:06:44.117Z,0.49
2017-12-29T01:07:44.634Z,0.55
2017-12-29T01:08:44.392Z,0.6
2017-12-29T01:09:44.163Z,0.6
2017-12-29T01:10:44.418Z,0.6
2017-12-29T01:11:44.184Z,0.6
2017-12-29T01:12:44.186Z,0.69
2017-12-29T01:13:44.197Z,0.62
2017-12-29T01:14:44.459Z,0.62
2017-12-29T01:15:44.520Z,0.69
2017-12-29T01:16:44.492Z,0.63
2017-12-29T01:17:44.746Z,0.58
2017-12-29T01:18:44.763Z,0.62
2017-12-29T01:19:44.773Z,0.76
2017-12-29T01:20:44.539Z,0.77
2017-12-29T01:21:44.786Z,0.7
2017-12-29T01:22:44.562Z,0.58
2017-12-29T01:23:44.560Z,0.77
2017-12-29T01:24:44.322Z,0.66
2017-12-29T01:25:44.584Z,0.73
2017-12-29T01:26:44.599Z,0.65
2017-12-29T01:27:44.355Z,0.69
2017-12-29T01:28:44.618Z,0.56
2017-12-29T01:29:44.631Z,0.68
2017-12-29T01:30:44.940Z,0.6
2017-12-29T01:31:44.652Z,0.8
2017-12-29T01:32:44.410Z,0.62
2017-12-29T01:33:44.934Z,0.6
2017-12-29T01:34:44.934Z,0.7
2017-12-29T01:35:44.694Z,0.77
2017-12-29T01:36:44.963Z,0.78
2017-12-29T01:37:44.969Z,0.74
2017-12-29T01:38:44.740Z,0.87
2017-12-29T01:39:44.997Z,0.76
2017-12-29T01:40:44.749Z,0.81
2017-12-29T01:41:44.761Z,0.73
2017-12-29T01:42:44.774Z,0.73
2017-12-29T01:43:45.037Z,0.77
2017-12-29T01:44:45.049Z,0.69
2017-12-29T01:45:44.610Z,0.73
2017-12-29T01:46:44.569Z,0.81
2017-12-29T01:47:44.831Z,0.78
2017-12-29T01:48:44.848Z,0.73
2017-12-29T01:49:44.852Z,0.63
2017-12-29T01:50:44.922Z,0.66
2017-12-29T01:51:44.627Z,0.7
2017-12-29T01:52:44.885Z,0.78
2017-12-29T01:53:44.899Z,0.91
2017-12-29T01:54:44.907Z,0.87
2017-12-29T01:55:44.923Z,0.84
2017-12-29T01:56:45.183Z,0.94
2017-12-29T01:57:44.697Z,0.88
2017-12-29T01:58:44.954Z,0.81
2017-12-29T01:59:44.716Z,0.83
2017-12-29T02:00:44.977Z,0.8
2017-12-29T02:01:44.994Z,0.86
2017-12-29T02:02:45.262Z,0.92
2017-12-29T02:03:45.268Z,0.95
2017-12-29T02:04:45.294Z,0.95
2017-12-29T02:05:44.840Z,0.95
2017-12-29T02:06:45.306Z,1.02
2017-12-29T02:07:45.317Z,1.12
2017-12-29T02:08:45.324Z,1.1
2017-12-29T02:09:45.334Z,1.2
2017-12-29T02:10:45.350Z,1.22
2017-12-29T02:11:45.355Z,1.12
2017-12-29T02:12:44.863Z,1.05
2017-12-29T02:13:45.378Z,1.08
2017-12-29T02:14:44.887Z,1.13
2017-12-29T02:15:44.895Z,1.19
2017-12-29T02:16:44.910Z,1.19
2017-12-29T02:17:44.920Z,1.06
2017-12-29T02:18:45.433Z,1.19
2017-12-29T02:19:45.448Z,1.26
2017-12-29T02:20:45.506Z,1.12
2017-12-29T02:21:45.220Z,1.08
2017-12-29T02:22:45.479Z,1.04
2017-12-29T02:23:45.290Z,1.01
2017-12-29T02:24:45.003Z,1.08
2017-12-29T02:25:45.516Z,0.98
2017-12-29T02:26:45.025Z,1.04
2017-12-29T02:27:45.039Z,1.16
2017-12-29T02:28:45.562Z,1.17
2017-12-29T02:29:45.314Z,1.16
2017-12-29T02:30:45.323Z,1.17
2017-12-29T02:31:45.086Z,1.19
2017-12-29T02:32:45.598Z,1.26
2017-12-29T02:33:45.357Z,1.26
2017-12-29T02:34:45.628Z,1.16
2017-12-29T02:35:45.126Z,1.06
2017-12-29T02:36:45.403Z,1.13
2017-12-29T02:37:45.657Z,1.05
2017-12-29T02:38:45.213Z,1.02
2017-12-29T02:39:45.677Z,1.1
2017-12-29T02:40:45.452Z,1.12
2017-12-29T02:41:45.452Z,1.23
2017-12-29T02:42:45.462Z,1.26
2017-12-29T02:43:45.727Z,1.23
2017-12-29T02:44:45.735Z,1.28
2017-12-29T02:45:45.494Z,1.31
2017-12-29T02:46:45.758Z,1.42
2017-12-29T02:47:45.268Z,1.31
2017-12-29T02:48:45.784Z,1.34
2017-12-29T02:49:45.290Z,1.42
2017-12-29T02:50:45.803Z,1.24
2017-12-29T02:51:45.317Z,1.34
2017-12-29T02:52:45.842Z,1.49
2017-12-29T02:53:45.634Z,1.48
2017-12-29T02:54:45.852Z,1.38
2017-12-29T02:55:45.629Z,1.42
2017-12-29T02:56:45.630Z,1.45
2017-12-29T02:57:45.891Z,1.41
2017-12-29T02:58:45.643Z,1.5
2017-12-29T02:59:45.910Z,1.48
2017-12-29T03:00:45.922Z,1.48
2017-12-29T03:01:45.928Z,1.59
2017-12-29T03:02:45.945Z,1.3
2017-12-29T03:03:45.703Z,1.3
2017-12-29T03:04:45.713Z,1.32
2017-12-29T03:05:45.728Z,1.26
2017-12-29T03:06:45.738Z,1.35
2017-12-29T03:07:45.752Z,1.28
2017-12-29T03:08:46.063Z,1.31
2017-12-29T03:09:46.024Z,1.3
2017-12-29T03:10:46.042Z,1.34
2017-12-29T03:11:45.546Z,1.4
2017-12-29T03:12:45.805Z,1.44
2017-12-29T03:13:45.825Z,1.5
2017-12-29T03:14:45.836Z,1.52
2017-12-29T03:15:46.096Z,1.44
2017-12-29T03:16:45.899Z,1.28
2017-12-29T03:17:45.628Z,1.2
2017-12-29T03:18:45.637Z,1.19
2017-12-29T03:19:45.647Z,1.17
2017-12-29T03:20:46.155Z,1.24
2017-12-29T03:21:45.918Z,1.28
2017-12-29T03:22:45.678Z,1.14
2017-12-29T03:23:46.341Z,1.14
2017-12-29T03:24:45.958Z,1.14
2017-12-29T03:25:45.968Z,1.19
2017-12-29T03:26:46.000Z,1.19
2017-12-29T03:27:45.988Z,1.28
2017-12-29T03:28:45.748Z,1.3
2017-12-29T03:29:46.017Z,1.2
2017-12-29T03:30:45.773Z,1.22
2017-12-29T03:31:46.282Z,1.19
2017-12-29T03:32:46.299Z,1.19
2017-12-29T03:33:46.313Z,1.2
2017-12-29T03:34:46.020Z,1.31
2017-12-29T03:35:46.330Z,1.26
2017-12-29T03:36:45.842Z,1.28
2017-12-29T03:37:46.352Z,1.26
2017-12-29T03:38:46.369Z,1.19
2017-12-29T03:39:46.430Z,1.22
2017-12-29T03:40:46.394Z,1.24
2017-12-29T03:41:46.406Z,1.3
2017-12-29T03:42:46.164Z,1.22
2017-12-29T03:43:45.924Z,1.16
2017-12-29T03:44:46.203Z,1.08
2017-12-29T03:45:46.197Z,1.2
2017-12-29T03:46:46.462Z,0.91
2017-12-29T03:47:46.474Z,0.95
2017-12-29T03:48:46.481Z,0.99
2017-12-29T03:49:45.995Z,1.08
2017-12-29T03:50:46.508Z,1.1
2017-12-29T03:51:46.268Z,1.14
2017-12-29T03:52:46.531Z,1.14
2017-12-29T03:53:46.290Z,1.2
2017-12-29T03:54:46.757Z,1.17
2017-12-29T03:55:46.063Z,1.06
2017-12-29T03:56:46.322Z,1.01
2017-12-29T03:57:46.335Z,1.14
2017-12-29T03:58:46.100Z,1.14
2017-12-29T03:59:46.608Z,1.16
2017-12-29T04:00:46.367Z,0.87
2017-12-29T04:01:46.130Z,1.05
2017-12-29T04:02:46.392Z,1.14
2017-12-29T04:03:46.156Z,1.04
2017-12-29T04:04:46.414Z,1.08
2017-12-29T04:05:46.177Z,1.04
2017-12-29T04:06:46.689Z,1.17
2017-12-29T04:07:46.449Z,1.16
2017-12-29T04:08:46.463Z,1.17
2017-12-29T04:09:46.775Z,1.31
2017-12-29T04:10:46.742Z,0.98
2017-12-29T04:11:46.754Z,1.05
2017-12-29T04:12:46.513Z,1.02
2017-12-29T04:13:46.522Z,0.96
2017-12-29T04:14:46.788Z,0.91
2017-12-29T04:15:46.544Z,0.95
2017-12-29T04:16:46.555Z,0.95
2017-12-29T04:17:46.818Z,1.1
2017-12-29T04:18:46.327Z,0.99
2017-12-29T04:19:46.337Z,1.1
2017-12-29T04:20:46.348Z,0.99
2017-12-29T04:21:46.613Z,1.05
2017-12-29T04:22:46.626Z,1.22
2017-12-29T04:23:46.890Z,1.23
2017-12-29T04:24:46.947Z,1.22
2017-12-29T04:25:46.407Z,1.16
2017-12-29T04:26:46.924Z,1.28
2017-12-29T04:27:46.686Z,1.13
2017-12-29T04:28:46.697Z,1.22
2017-12-29T04:29:46.706Z,1.22
2017-12-29T04:30:46.720Z,1.16
2017-12-29T04:31:46.732Z,1.24
2017-12-29T04:32:46.990Z,1.17
2017-12-29T04:33:46.753Z,1.13
2017-12-29T04:34:46.762Z,1.26
2017-12-29T04:35:46.773Z,1.06
2017-12-29T04:36:46.787Z,1.2
2017-12-29T04:37:46.548Z,1.26
2017-12-29T04:38:47.065Z,1.17
2017-12-29T04:39:47.124Z,1.23
2017-12-29T04:40:47.086Z,1.2
2017-12-29T04:41:46.845Z,1.35
2017-12-29T04:42:46.857Z,1.28
2017-12-29T04:43:47.121Z,1.28
2017-12-29T04:44:47.182Z,1.22
2017-12-29T04:45:46.894Z,1.34
2017-12-29T04:46:46.905Z,1.19
2017-12-29T04:47:46.668Z,1.22
2017-12-29T04:48:46.924Z,1.12
2017-12-29T04:49:47.185Z,1.06
2017-12-29T04:50:46.946Z,0.88
2017-12-29T04:51:46.910Z,0.84
2017-12-29T04:52:47.220Z,0.92
2017-12-29T04:53:47.258Z,0.83
2017-12-29T04:54:47.296Z,0.94
2017-12-29T04:55:47.027Z,1.02
2017-12-29T04:56:47.268Z,1.1
2017-12-29T04:57:47.025Z,1.13
2017-12-29T04:58:47.290Z,1.13
2017-12-29T04:59:47.304Z,1.24
2017-12-29T05:00:47.062Z,1.22
2017-12-29T05:01:47.322Z,1.23
2017-12-29T05:02:46.835Z,1.08
2017-12-29T05:03:47.103Z,1.02
2017-12-29T05:04:47.361Z,0.99
2017-12-29T05:05:46.873Z,1.13
2017-12-29T05:06:47.137Z,0.99
2017-12-29T05:07:47.399Z,1.08
2017-12-29T05:08:47.411Z,1.14
2017-12-29T05:09:46.970Z,1.26
2017-12-29T05:10:47.181Z,1.19
2017-12-29T05:11:47.445Z,1.22
2017-12-29T05:12:46.953Z,1.05
2017-12-29T05:13:47.215Z,1.01
2017-12-29T05:14:47.479Z,1.06
2017-12-29T05:15:47.239Z,0.94
2017-12-29T05:16:46.999Z,0.76
2017-12-29T05:17:47.514Z,0.77
2017-12-29T05:18:47.525Z,0.92
2017-12-29T05:19:47.548Z,0.95
2017-12-29T05:20:47.044Z,1.01
2017-12-29T05:21:47.558Z,1.04
2017-12-29T05:22:47.323Z,0.96
2017-12-29T05:23:47.586Z,0.83
2017-12-29T05:24:47.394Z,0.78
2017-12-29T05:25:47.105Z,0.84
2017-12-29T05:26:47.388Z,0.84
2017-12-29T05:27:47.631Z,0.94
2017-12-29T05:28:47.640Z,0.88
2017-12-29T05:29:47.460Z,0.74
2017-12-29T05:30:47.663Z,0.77
2017-12-29T05:31:47.428Z,0.76
2017-12-29T05:32:47.685Z,0.56
2017-12-29T05:33:47.710Z,0.66
2017-12-29T05:34:47.459Z,0.66
2017-12-29T05:35:47.224Z,0.83
2017-12-29T05:36:47.588Z,0.87
2017-12-29T05:37:47.492Z,0.95
2017-12-29T05:38:47.502Z,0.7
2017-12-29T05:39:47.266Z,0.74
2017-12-29T05:40:47.275Z,0.81
2017-12-29T05:41:47.837Z,0.83
2017-12-29T05:42:47.804Z,0.65
2017-12-29T05:43:47.563Z,0.65
2017-12-29T05:44:47.827Z,0.76
2017-12-29T05:45:47.833Z,0.59
2017-12-29T05:46:47.600Z,0.55
2017-12-29T05:47:47.603Z,0.62
2017-12-29T05:48:47.636Z,0.56
2017-12-29T05:49:47.627Z,0.6
2017-12-29T05:50:47.640Z,0.76
2017-12-29T05:51:47.652Z,0.78
2017-12-29T05:52:47.910Z,0.59
2017-12-29T05:53:47.926Z,0.63
2017-12-29T05:54:47.684Z,0.56
2017-12-29T05:55:47.947Z,0.63
2017-12-29T05:56:48.011Z,0.66
2017-12-29T05:57:47.466Z,0.65
2017-12-29T05:58:47.983Z,0.55
2017-12-29T05:59:47.998Z,0.46
2017-12-29T06:00:48.010Z,0.49
2017-12-29T06:01:47.767Z,0.39
2017-12-29T06:02:47.777Z,0.5
2017-12-29T06:03:48.039Z,0.4
2017-12-29T06:04:47.545Z,0.37
2017-12-29T06:05:47.805Z,0.49
2017-12-29T06:06:47.846Z,0.49
2017-12-29T06:07:47.577Z,0.47
2017-12-29T06:08:47.840Z,0.55
2017-12-29T06:09:48.102Z,0.5
2017-12-29T06:10:48.114Z,0.58
2017-12-29T06:11:48.143Z,0.62
2017-12-29T06:12:48.133Z,0.63
2017-12-29T06:13:47.901Z,0.66
2017-12-29T06:14:47.907Z,0.62
2017-12-29T06:15:47.923Z,0.49
2017-12-29T06:16:48.183Z,0.58
2017-12-29T06:17:48.197Z,0.62
2017-12-29T06:18:47.954Z,0.56
2017-12-29T06:19:47.712Z,0.5
2017-12-29T06:20:48.226Z,0.55
2017-12-29T06:21:47.985Z,0.55
2017-12-29T06:22:47.745Z,0.43
2017-12-29T06:23:48.265Z,0.5
2017-12-29T06:24:48.018Z,0.49
2017-12-29T06:25:47.775Z,0.37
2017-12-29T06:26:48.040Z,0.43
2017-12-29T06:27:48.253Z,0.4
2017-12-29T06:28:48.062Z,0.5
2017-12-29T06:29:48.078Z,0.52
2017-12-29T06:30:48.085Z,0.46
2017-12-29T06:31:48.099Z,0.29
2017-12-29T06:32:48.364Z,0.36
2017-12-29T06:33:47.869Z,0.36
2017-12-29T06:34:48.383Z,0.34
2017-12-29T06:35:48.395Z,0.5
2017-12-29T06:36:48.152Z,0.37
2017-12-29T06:37:48.473Z,0.32
2017-12-29T06:38:48.179Z,0.29
2017-12-29T06:39:48.188Z,0.19
2017-12-29T06:40:48.199Z,0.25
2017-12-29T06:41:47.958Z,0.29
2017-12-29T06:42:48.273Z,0.25
2017-12-29T06:43:48.562Z,0.28
2017-12-29T06:44:48.494Z,0.29
2017-12-29T06:45:48.505Z,0.36
2017-12-29T06:46:48.018Z,0.44
2017-12-29T06:47:48.275Z,0.36
2017-12-29T06:48:48.287Z,0.29
2017-12-29T06:49:48.308Z,0.32
2017-12-29T06:50:48.058Z,0.34
2017-12-29T06:51:48.593Z,0.34
2017-12-29T06:52:48.587Z,0.4
2017-12-29T06:53:48.596Z,0.43
2017-12-29T06:54:48.102Z,0.32
2017-12-29T06:55:48.616Z,0.37
2017-12-29T06:56:48.379Z,0.36
2017-12-29T06:57:48.441Z,0.44
2017-12-29T06:58:48.401Z,0.5
2017-12-29T06:59:48.408Z,0.6
2017-12-29T07:00:48.172Z,0.6
2017-12-29T07:01:48.430Z,0.74
2017-12-29T07:02:48.196Z,0.78
2017-12-29T07:03:48.705Z,0.96
2017-12-29T07:04:48.726Z,0.98
2017-12-29T07:05:48.225Z,0.81
2017-12-29T07:06:48.739Z,0.78
2017-12-29T07:07:48.749Z,0.77
2017-12-29T07:08:48.262Z,0.59
2017-12-29T07:09:48.523Z,0.62
2017-12-29T07:10:48.281Z,0.52
2017-12-29T07:11:48.541Z,0.5
2017-12-29T07:12:48.852Z,0.56
2017-12-29T07:13:48.560Z,0.5
2017-12-29T07:14:48.327Z,0.66
2017-12-29T07:15:48.334Z,0.62
2017-12-29T07:16:48.599Z,0.6
2017-12-29T07:17:48.906Z,0.47
2017-12-29T07:18:48.372Z,0.46
2017-12-29T07:19:49.000Z,0.49
2017-12-29T07:20:48.655Z,0.55
2017-12-29T07:21:48.658Z,0.5
2017-12-29T07:22:48.671Z,0.66
2017-12-29T07:23:48.689Z,0.52
2017-12-29T07:24:48.944Z,0.58
2017-12-29T07:25:48.951Z,0.59
2017-12-29T07:26:48.968Z,0.5
2017-12-29T07:27:48.779Z,0.66
2017-12-29T07:28:48.735Z,0.69
2017-12-29T07:29:48.747Z,0.55
2017-12-29T07:30:48.758Z,0.58
2017-12-29T07:31:48.793Z,0.49
2017-12-29T07:32:48.778Z,0.49
2017-12-29T07:33:48.791Z,0.47
2017-12-29T07:34:49.057Z,0.41
2017-12-29T07:35:49.064Z,0.5
2017-12-29T07:36:48.886Z,0.44
2017-12-29T07:37:49.142Z,0.49
2017-12-29T07:38:48.602Z,0.44
2017-12-29T07:39:48.857Z,0.49
2017-12-29T07:40:49.136Z,0.49
2017-12-29T07:41:49.130Z,0.65
2017-12-29T07:42:48.689Z,0.73
2017-12-29T07:43:48.651Z,0.69
2017-12-29T07:44:48.914Z,0.78
2017-12-29T07:45:48.681Z,0.87
2017-12-29T07:46:48.688Z,0.96
2017-12-29T07:47:48.698Z,0.92
2017-12-29T07:48:48.963Z,0.95
2017-12-29T07:49:49.226Z,0.91
2017-12-29T07:50:48.730Z,1.01
2017-12-29T07:51:48.992Z,0.92
2017-12-29T07:52:49.004Z,0.94
2017-12-29T07:53:49.016Z,0.91
2017-12-29T07:54:48.779Z,1.05
2017-12-29T07:55:48.788Z,1.06
2017-12-29T07:56:49.051Z,1.01
2017-12-29T07:57:48.860Z,1.17
2017-12-29T07:58:49.330Z,1.19
2017-12-29T07:59:48.833Z,1.17
2017-12-29T08:00:49.358Z,1.19
2017-12-29T08:01:49.362Z,1.2
2017-12-29T08:02:49.118Z,1.24
2017-12-29T08:03:49.129Z,1.28
2017-12-29T08:04:48.894Z,1.2
2017-12-29T08:05:49.161Z,1.38
2017-12-29T08:06:49.421Z,1.26
2017-12-29T08:07:49.431Z,1.12
2017-12-29T08:08:49.192Z,0.92
2017-12-29T08:09:49.475Z,0.88
2017-12-29T08:10:49.468Z,0.96
2017-12-29T08:11:49.227Z,0.92
2017-12-29T08:12:49.290Z,1.04
2017-12-29T08:13:49.500Z,1.08
2017-12-29T08:14:49.561Z,1.13
2017-12-29T08:15:49.525Z,1.22
2017-12-29T08:16:49.287Z,1.26
2017-12-29T08:17:49.603Z,1.3
2017-12-29T08:18:49.568Z,1.55
2017-12-29T08:19:49.573Z,1.59
2017-12-29T08:20:49.082Z,1.58
2017-12-29T08:21:49.600Z,1.49
2017-12-29T08:22:49.107Z,1.44
2017-12-29T08:23:49.120Z,1.44
2017-12-29T08:24:49.379Z,1.45
2017-12-29T08:25:49.390Z,1.53
2017-12-29T08:26:49.405Z,1.62
2017-12-29T08:27:49.472Z,1.6
2017-12-29T08:28:49.179Z,1.49
2017-12-29T08:29:49.454Z,1.49
2017-12-29T08:30:49.706Z,1.52
2017-12-29T08:31:49.722Z,1.62
2017-12-29T08:32:49.738Z,1.77
2017-12-29T08:33:49.239Z,1.94
2017-12-29T08:34:49.754Z,2.14
2017-12-29T08:35:49.268Z,2.07
2017-12-29T08:36:49.536Z,2
2017-12-29T08:37:49.792Z,2.04
2017-12-29T08:38:49.300Z,2.14
2017-12-29T08:39:49.567Z,2.13
2017-12-29T08:40:49.845Z,2.2
2017-12-29T08:41:49.339Z,2.36
2017-12-29T08:42:49.906Z,2.25
2017-12-29T08:43:49.875Z,2.36
2017-12-29T08:44:49.630Z,2.31
2017-12-29T08:45:49.641Z,2.43
2017-12-29T08:46:49.652Z,2.38
2017-12-29T08:47:49.927Z,2.44
2017-12-29T08:48:49.426Z,2.39
2017-12-29T08:49:49.438Z,2.31
2017-12-29T08:50:49.473Z,2.24
2017-12-29T08:51:49.719Z,2.26
2017-12-29T08:52:49.729Z,2.33
2017-12-29T08:53:49.742Z,2.29
2017-12-29T08:54:49.506Z,2.28
2017-12-29T08:55:49.517Z,2.35
2017-12-29T08:56:50.032Z,2.54
2017-12-29T08:57:49.791Z,2.62
2017-12-29T08:58:49.808Z,2.43
2017-12-29T08:59:49.821Z,2.29
2017-12-29T09:00:49.631Z,2.18
2017-12-29T09:01:50.096Z,2.18
2017-12-29T09:02:49.853Z,2.26
2017-12-29T09:03:49.866Z,2.39
2017-12-29T09:04:49.880Z,2.42
2017-12-29T09:05:49.709Z,2.46
2017-12-29T09:06:49.909Z,2.38
2017-12-29T09:07:49.917Z,2.33
2017-12-29T09:08:49.935Z,2.47
2017-12-29T09:09:49.944Z,2.31
2017-12-29T09:10:49.959Z,2.32
2017-12-29T09:11:50.228Z,2.29
2017-12-29T09:12:50.238Z,2.32
2017-12-29T09:13:50.001Z,2.24
2017-12-29T09:14:50.266Z,2.28
2017-12-29T09:15:49.828Z,2.28
2017-12-29T09:16:50.040Z,2.32
2017-12-29T09:17:50.307Z,2.38
2017-12-29T09:18:50.066Z,2.61
2017-12-29T09:19:50.082Z,2.54
2017-12-29T09:20:49.843Z,2.6
2017-12-29T09:21:50.110Z,2.6
2017-12-29T09:22:50.374Z,2.56
2017-12-29T09:23:50.133Z,2.56
2017-12-29T09:24:50.397Z,2.51
2017-12-29T09:25:49.910Z,2.29
2017-12-29T09:26:50.181Z,2.29
2017-12-29T09:27:49.932Z,2.2
2017-12-29T09:28:49.945Z,2.15
2017-12-29T09:29:49.956Z,2.24
2017-12-29T09:30:50.269Z,2.2
2017-12-29T09:31:50.488Z,2.26
2017-12-29T09:32:49.996Z,2.24
2017-12-29T09:33:50.509Z,2.35
2017-12-29T09:34:50.273Z,2.24
2017-12-29T09:35:50.283Z,2.2
2017-12-29T09:36:50.544Z,2.29
2017-12-29T09:37:50.562Z,2.35
2017-12-29T09:38:50.572Z,2.44
2017-12-29T09:39:50.336Z,2.42
2017-12-29T09:40:50.600Z,2.62
2017-12-29T09:41:50.363Z,2.6
2017-12-29T09:42:50.650Z,2.53
2017-12-29T09:43:50.650Z,2.49
2017-12-29T09:44:50.655Z,2.43
2017-12-29T09:45:50.769Z,2.22
2017-12-29T09:46:50.426Z,2.06
2017-12-29T09:47:50.451Z,2.11
2017-12-29T09:48:50.455Z,2.17
2017-12-29T09:49:50.720Z,2.14
2017-12-29T09:50:50.226Z,2.07
2017-12-29T09:51:50.490Z,2.18
2017-12-29T09:52:50.252Z,2.2
2017-12-29T09:53:50.520Z,2.35
2017-12-29T09:54:50.786Z,2.35
2017-12-29T09:55:50.796Z,2.29
2017-12-29T09:56:50.303Z,2.42
2017-12-29T09:57:50.578Z,2.36
2017-12-29T09:58:50.581Z,2.57
2017-12-29T09:59:50.848Z,2.6
2017-12-29T10:00:50.658Z,2.6
2017-12-29T10:01:50.623Z,2.95
2017-12-29T10:02:50.641Z,3.19
2017-12-29T10:03:50.648Z,3.48
2017-12-29T10:04:50.663Z,3.62
2017-12-29T10:05:50.983Z,3.76
2017-12-29T10:06:50.438Z,3.91
2017-12-29T10:07:50.972Z,3.98
2017-12-29T10:08:50.982Z,3.94
2017-12-29T10:09:50.764Z,3.87
2017-12-29T10:10:51.011Z,3.83
2017-12-29T10:11:50.772Z,3.95
2017-12-29T10:12:50.794Z,4.12
2017-12-29T10:13:51.055Z,4.45
2017-12-29T10:14:51.077Z,4.49
2017-12-29T10:15:50.987Z,4.5
2017-12-29T10:16:50.602Z,4.68
2017-12-29T10:17:50.880Z,4.71
2017-12-29T10:18:51.143Z,4.86
2017-12-29T10:19:50.931Z,4.8
2017-12-29T10:20:50.674Z,5.18
2017-12-29T10:21:51.199Z,5.3
2017-12-29T10:22:51.213Z,5.41
2017-12-29T10:23:50.998Z,5.62
2017-12-29T10:24:51.002Z,5.79
2017-12-29T10:25:50.766Z,6.04
2017-12-29T10:26:51.292Z,6.26
2017-12-29T10:27:50.808Z,6.45
2017-12-29T10:28:50.827Z,6.41
2017-12-29T10:29:51.100Z,6.52
2017-12-29T10:30:51.169Z,6.74
2017-12-29T10:31:51.397Z,7.2
2017-12-29T10:32:50.912Z,7.6
2017-12-29T10:33:51.429Z,7.56
2017-12-29T10:34:51.214Z,6.92
2017-12-29T10:35:51.222Z,7.24
2017-12-29T10:36:50.997Z,7.4
2017-12-29T10:37:51.279Z,7.39
2017-12-29T10:38:51.292Z,7.31
2017-12-29T10:39:51.577Z,7.45
2017-12-29T10:40:51.587Z,7.57
2017-12-29T10:41:51.357Z,7.7
2017-12-29T10:42:51.381Z,7.9
2017-12-29T10:43:51.150Z,8.05
2017-12-29T10:44:51.421Z,8.05
2017-12-29T10:45:51.495Z,8.05
2017-12-29T10:46:51.472Z,8.26
2017-12-29T10:47:51.740Z,8.51
2017-12-29T10:48:51.520Z,8.64
2017-12-29T10:49:51.788Z,8.37
2017-12-29T10:50:51.307Z,8.19
2017-12-29T10:51:51.592Z,7.94
2017-12-29T10:52:51.615Z,7.9
2017-12-29T10:53:51.637Z,7.82
2017-12-29T10:54:51.969Z,8.1
2017-12-29T10:55:51.431Z,8.51
2017-12-29T10:56:51.953Z,8.7
2017-12-29T10:57:51.981Z,8.27
2017-12-29T10:58:51.748Z,8.38
2017-12-29T10:59:51.517Z,8.49
2017-12-29T11:00:52.177Z,8.64
2017-12-29T11:01:52.069Z,8.64
2017-12-29T11:02:52.096Z,8.88
2017-12-29T11:03:52.115Z,9.32
2017-12-29T11:04:52.147Z,9.21
2017-12-29T11:05:51.664Z,9.32
2017-12-29T11:06:51.936Z,8.94
2017-12-29T11:07:52.264Z,9
2017-12-29T11:08:52.239Z,8.64
2017-12-29T11:09:52.015Z,8.6
2017-12-29T11:10:52.037Z,8.41
2017-12-29T11:11:52.061Z,8.61
2017-12-29T11:12:52.089Z,8.81
2017-12-29T11:13:52.110Z,8.99
2017-12-29T11:14:51.881Z,9.29
2017-12-29T11:15:51.911Z,9.64
2017-12-29T11:16:52.435Z,9.99
2017-12-29T11:17:52.486Z,9.89
2017-12-29T11:18:52.483Z,9.62
2017-12-29T11:19:52.262Z,9.95
2017-12-29T11:20:52.541Z,10.3
2017-12-29T11:21:52.559Z,10.33
2017-12-29T11:22:52.136Z,10.56
2017-12-29T11:23:52.367Z,11.02
2017-12-29T11:24:52.386Z,11.08
2017-12-29T11:25:52.405Z,11.33
2017-12-29T11:26:52.198Z,11.33
2017-12-29T11:27:52.720Z,11.29
2017-12-29T11:28:52.740Z,11.08
2017-12-29T11:29:52.512Z,11.37
2017-12-29T11:30:52.544Z,11.37
2017-12-29T11:31:52.819Z,11.36
2017-12-29T11:32:52.589Z,11.62
2017-12-29T11:33:52.371Z,11.52
2017-12-29T11:34:52.891Z,11.6
2017-12-29T11:35:52.670Z,11.36
2017-12-29T11:36:52.698Z,11.4
2017-12-29T11:37:52.774Z,11.02
2017-12-29T11:38:52.498Z,11.1
2017-12-29T11:39:52.523Z,10.74
2017-12-29T11:40:53.054Z,10.54
2017-12-29T11:41:53.079Z,10.4
2017-12-29T11:42:53.108Z,10.86
2017-12-29T11:43:53.132Z,11.25
2017-12-29T11:44:53.158Z,11.43
2017-12-29T11:45:52.935Z,11.51
2017-12-29T11:46:53.210Z,11.4
2017-12-29T11:47:52.734Z,11.57
2017-12-29T11:48:53.267Z,11.83
2017-12-29T11:49:53.291Z,12
2017-12-29T11:50:53.315Z,12.12
2017-12-29T11:51:53.342Z,12.07
2017-12-29T11:52:52.917Z,12.42
2017-12-29T11:53:53.402Z,12.57
2017-12-29T11:54:53.172Z,12.7
2017-12-29T11:55:53.466Z,12.75
2017-12-29T11:56:53.227Z,12.61
2017-12-29T11:57:53.256Z,12.64
2017-12-29T11:58:53.284Z,12.97
2017-12-29T11:59:53.310Z,13.25
2017-12-29T12:00:53.338Z,13.3
2017-12-29T12:01:53.110Z,13.44
2017-12-29T12:02:53.391Z,13.49
2017-12-29T12:03:53.726Z,13.59
2017-12-29T12:04:53.714Z,13.9
2017-12-29T12:05:53.477Z,14.03
2017-12-29T12:06:53.252Z,13.78
2017-12-29T12:07:53.581Z,13.86
2017-12-29T12:08:53.560Z,13.62
2017-12-29T12:09:53.336Z,14.07
2017-12-29T12:10:53.367Z,13.87
2017-12-29T12:11:53.908Z,13.28
2017-12-29T12:12:53.928Z,13
2017-12-29T12:13:53.699Z,13
2017-12-29T12:14:53.982Z,12.87
2017-12-29T12:15:54.012Z,12.98
2017-12-29T12:16:54.038Z,12.78
2017-12-29T12:17:53.818Z,12.76
2017-12-29T12:18:54.092Z,12.79
2017-12-29T12:19:53.872Z,12.78
2017-12-29T12:20:53.648Z,12.82
2017-12-29T12:21:53.931Z,12.94
2017-12-29T12:22:54.107Z,13.27
2017-12-29T12:23:53.734Z,13.52
2017-12-29T12:24:54.012Z,13.85
2017-12-29T12:25:54.302Z,13.67
2017-12-29T12:26:54.325Z,13.65
2017-12-29T12:27:54.099Z,13.3
2017-12-29T12:28:54.124Z,13.33
2017-12-29T12:29:54.404Z,13
2017-12-29T12:30:53.929Z,12.94
2017-12-29T12:31:54.207Z,13.22
2017-12-29T12:32:54.493Z,13.13
2017-12-29T12:33:54.022Z,13.31
2017-12-29T12:34:54.292Z,13.72
2017-12-29T12:35:54.325Z,13.37
2017-12-29T12:36:54.354Z,13.22
2017-12-29T12:37:54.533Z,13.72
2017-12-29T12:38:54.664Z,13.81
2017-12-29T12:39:54.687Z,14.11
2017-12-29T12:40:54.467Z,14.15
2017-12-29T12:41:54.693Z,14.28
2017-12-29T12:42:54.523Z,13.68
2017-12-29T12:43:54.797Z,13.87
2017-12-29T12:44:54.326Z,13.81
2017-12-29T12:45:54.607Z,13.68
2017-12-29T12:46:54.638Z,13.93
2017-12-29T12:47:54.915Z,13.37
2017-12-29T12:48:54.437Z,13.05
2017-12-29T12:49:54.715Z,13.28
2017-12-29T12:50:54.999Z,13.28
2017-12-29T12:51:54.774Z,13.62
2017-12-29T12:52:54.603Z,13.74
2017-12-29T12:53:54.583Z,13.83
2017-12-29T12:54:55.113Z,13.89
2017-12-29T12:55:54.637Z,13.56
2017-12-29T12:56:54.916Z,12.94
2017-12-29T12:57:54.946Z,12.98
2017-12-29T12:58:54.968Z,13.41
2017-12-29T12:59:54.999Z,13.74
2017-12-29T13:00:55.029Z,13.85
2017-12-29T13:01:55.055Z,14
2017-12-29T13:02:55.083Z,14.36
2017-12-29T13:03:55.107Z,14.65
2017-12-29T13:04:55.402Z,14.91
2017-12-29T13:05:55.418Z,15.27
2017-12-29T13:06:55.191Z,14.55
2017-12-29T13:07:55.372Z,14.53
2017-12-29T13:08:55.254Z,14.5
2017-12-29T13:09:55.311Z,14.33
2017-12-29T13:10:55.626Z,14.28
2017-12-29T13:11:55.331Z,14.25
2017-12-29T13:12:55.616Z,14.14
2017-12-29T13:13:55.385Z,14.14
2017-12-29T13:14:55.414Z,14.62
2017-12-29T13:15:55.438Z,14.97
2017-12-29T13:16:55.721Z,14.89
2017-12-29T13:17:55.768Z,14.05
2017-12-29T13:18:55.782Z,13.83